sensor_id;sensor_type;location;lat;lon;timestamp;temperature;humidity
16243;DHT22;11719;51.052;6.982;2023-12-22T00:02:09;8.80;99.90
16243;DHT22;11719;51.052;6.982;2023-12-22T00:04:35;8.70;99.90
16243;DHT22;11719;51.052;6.982;2023-12-22T00:07:04;8.70;99.90
16243;DHT22;11719;51.052;6.982;2023-12-22T00:09:30;8.70;99.90
16243;DHT22;11719;51.052;6.982;2023-12-22T00:12:08;8.80;99.90
16243;DHT22;11719;51.052;6.982;2023-12-22T00:14:38;8.60;99.90
16243;DHT22;11719;51.052;6.982;2023-12-22T00:17:08;8.60;99.90
16243;DHT22;11719;51.052;6.982;2023-12-22T00:19:42;8.60;99.90
16243;DHT22;11719;51.052;6.982;2023-12-22T00:22:08;8.50;99.90
16243;DHT22;11719;51.052;6.982;2023-12-22T00:24:34;8.50;99.90
16243;DHT22;11719;51.052;6.982;2023-12-22T00:27:05;8.60;99.90
16243;DHT22;11719;51.052;6.982;2023-12-22T00:29:35;8.50;99.90
16243;DHT22;11719;51.052;6.982;2023-12-22T00:32:02;8.50;99.90
16243;DHT22;11719;51.052;6.982;2023-12-22T00:34:36;8.50;99.90
16243;DHT22;11719;51.052;6.982;2023-12-22T00:37:02;8.60;99.90
16243;DHT22;11719;51.052;6.982;2023-12-22T00:39:30;8.50;99.90
16243;DHT22;11719;51.052;6.982;2023-12-22T00:41:57;8.50;99.90
16243;DHT22;11719;51.052;6.982;2023-12-22T00:44:23;8.70;99.90
16243;DHT22;11719;51.052;6.982;2023-12-22T00:46:56;8.70;99.90
16243;DHT22;11719;51.052;6.982;2023-12-22T00:49:22;8.80;99.90
16243;DHT22;11719;51.052;6.982;2023-12-22T00:51:50;8.90;99.90
16243;DHT22;11719;51.052;6.982;2023-12-22T00:54:18;9.00;99.90
16243;DHT22;11719;51.052;6.982;2023-12-22T00:56:44;9.10;99.90
16243;DHT22;11719;51.052;6.982;2023-12-22T00:59:25;9.30;99.90
16243;DHT22;11719;51.052;6.982;2023-12-22T01:01:51;9.30;99.90
16243;DHT22;11719;51.052;6.982;2023-12-22T01:04:20;9.30;99.90
16243;DHT22;11719;51.052;6.982;2023-12-22T01:06:49;9.20;99.90
16243;DHT22;11719;51.052;6.982;2023-12-22T01:09:15;9.30;99.90
16243;DHT22;11719;51.052;6.982;2023-12-22T01:11:41;9.40;99.90
16243;DHT22;11719;51.052;6.982;2023-12-22T01:14:07;9.30;99.90
16243;DHT22;11719;51.052;6.982;2023-12-22T01:16:42;9.20;99.90
16243;DHT22;11719;51.052;6.982;2023-12-22T01:19:09;9.20;99.90
16243;DHT22;11719;51.052;6.982;2023-12-22T01:21:41;9.10;99.90
16243;DHT22;11719;51.052;6.982;2023-12-22T01:24:10;9.00;99.90
16243;DHT22;11719;51.052;6.982;2023-12-22T01:26:36;8.90;99.90
16243;DHT22;11719;51.052;6.982;2023-12-22T01:29:04;8.90;99.90
16243;DHT22;11719;51.052;6.982;2023-12-22T01:31:56;9.00;99.90
16243;DHT22;11719;51.052;6.982;2023-12-22T01:34:22;8.90;99.90
16243;DHT22;11719;51.052;6.982;2023-12-22T01:36:48;9.00;99.90
16243;DHT22;11719;51.052;6.982;2023-12-22T01:39:16;8.80;99.90
16243;DHT22;11719;51.052;6.982;2023-12-22T01:41:42;8.80;99.90
16243;DHT22;11719;51.052;6.982;2023-12-22T01:44:08;8.80;99.90
16243;DHT22;11719;51.052;6.982;2023-12-22T01:46:34;8.80;99.90
16243;DHT22;11719;51.052;6.982;2023-12-22T01:49:00;8.60;99.90
16243;DHT22;11719;51.052;6.982;2023-12-22T01:51:32;8.70;99.90
16243;DHT22;11719;51.052;6.982;2023-12-22T01:54:01;8.60;99.90
16243;DHT22;11719;51.052;6.982;2023-12-22T01:56:27;8.60;99.90
16243;DHT22;11719;51.052;6.982;2023-12-22T01:59:43;8.50;99.90
16243;DHT22;11719;51.052;6.982;2023-12-22T02:02:10;8.50;99.90
16243;DHT22;11719;51.052;6.982;2023-12-22T02:04:36;8.40;99.90
16243;DHT22;11719;51.052;6.982;2023-12-22T02:07:10;8.50;99.90
16243;DHT22;11719;51.052;6.982;2023-12-22T02:09:36;8.60;99.90
16243;DHT22;11719;51.052;6.982;2023-12-22T02:12:05;8.50;99.90
16243;DHT22;11719;51.052;6.982;2023-12-22T02:14:31;8.60;99.90
16243;DHT22;11719;51.052;6.982;2023-12-22T02:19:42;8.60;99.90
16243;DHT22;11719;51.052;6.982;2023-12-22T02:22:17;8.70;99.90
16243;DHT22;11719;51.052;6.982;2023-12-22T02:24:50;8.80;99.90
16243;DHT22;11719;51.052;6.982;2023-12-22T02:33:00;8.80;99.90
16243;DHT22;11719;51.052;6.982;2023-12-22T02:35:32;8.90;99.90
16243;DHT22;11719;51.052;6.982;2023-12-22T02:38:08;8.90;99.90
16243;DHT22;11719;51.052;6.982;2023-12-22T02:40:35;8.90;99.90
16243;DHT22;11719;51.052;6.982;2023-12-22T02:43:02;8.90;99.90
16243;DHT22;11719;51.052;6.982;2023-12-22T02:45:28;9.10;99.90
16243;DHT22;11719;51.052;6.982;2023-12-22T02:47:55;8.90;99.90
16243;DHT22;11719;51.052;6.982;2023-12-22T02:50:21;8.90;99.90
16243;DHT22;11719;51.052;6.982;2023-12-22T02:52:47;8.70;99.90
16243;DHT22;11719;51.052;6.982;2023-12-22T02:55:22;8.80;99.90
16243;DHT22;11719;51.052;6.982;2023-12-22T02:57:48;9.10;99.90
16243;DHT22;11719;51.052;6.982;2023-12-22T03:00:13;9.10;99.90
16243;DHT22;11719;51.052;6.982;2023-12-22T03:02:39;9.10;99.90
16243;DHT22;11719;51.052;6.982;2023-12-22T03:05:07;9.00;99.90
16243;DHT22;11719;51.052;6.982;2023-12-22T03:07:33;9.10;99.90
16243;DHT22;11719;51.052;6.982;2023-12-22T03:10:02;9.30;99.90
16243;DHT22;11719;51.052;6.982;2023-12-22T03:12:28;9.30;99.90
16243;DHT22;11719;51.052;6.982;2023-12-22T03:14:54;9.30;99.90
16243;DHT22;11719;51.052;6.982;2023-12-22T03:17:19;9.40;99.90
16243;DHT22;11719;51.052;6.982;2023-12-22T03:19:45;9.50;99.90
16243;DHT22;11719;51.052;6.982;2023-12-22T03:22:11;9.60;99.90
16243;DHT22;11719;51.052;6.982;2023-12-22T03:24:42;9.60;99.90
16243;DHT22;11719;51.052;6.982;2023-12-22T03:27:21;9.80;99.90
16243;DHT22;11719;51.052;6.982;2023-12-22T03:29:47;9.80;99.90
16243;DHT22;11719;51.052;6.982;2023-12-22T03:32:12;9.90;99.90
16243;DHT22;11719;51.052;6.982;2023-12-22T03:34:38;9.90;99.90
16243;DHT22;11719;51.052;6.982;2023-12-22T03:37:04;9.90;99.90
16243;DHT22;11719;51.052;6.982;2023-12-22T03:39:31;9.90;99.90
16243;DHT22;11719;51.052;6.982;2023-12-22T03:42:01;9.90;99.90
16243;DHT22;11719;51.052;6.982;2023-12-22T03:44:31;10.00;99.90
16243;DHT22;11719;51.052;6.982;2023-12-22T03:46:57;10.00;99.90
16243;DHT22;11719;51.052;6.982;2023-12-22T03:49:23;10.00;99.90
16243;DHT22;11719;51.052;6.982;2023-12-22T03:51:48;10.00;99.90
16243;DHT22;11719;51.052;6.982;2023-12-22T03:54:20;10.00;99.90
16243;DHT22;11719;51.052;6.982;2023-12-22T03:56:46;10.00;99.90
16243;DHT22;11719;51.052;6.982;2023-12-22T03:59:12;10.10;99.90
16243;DHT22;11719;51.052;6.982;2023-12-22T04:01:38;10.10;99.90
16243;DHT22;11719;51.052;6.982;2023-12-22T04:04:04;10.10;99.90
16243;DHT22;11719;51.052;6.982;2023-12-22T04:06:30;10.20;99.90
16243;DHT22;11719;51.052;6.982;2023-12-22T04:09:00;10.20;99.90
16243;DHT22;11719;51.052;6.982;2023-12-22T04:11:26;10.20;99.90
16243;DHT22;11719;51.052;6.982;2023-12-22T04:13:51;10.20;99.90
16243;DHT22;11719;51.052;6.982;2023-12-22T04:16:17;10.60;99.90
16243;DHT22;11719;51.052;6.982;2023-12-22T04:18:43;10.40;99.90
16243;DHT22;11719;51.052;6.982;2023-12-22T04:21:10;10.20;99.90
16243;DHT22;11719;51.052;6.982;2023-12-22T04:23:36;10.00;99.90
16243;DHT22;11719;51.052;6.982;2023-12-22T04:26:02;9.90;99.90
16243;DHT22;11719;51.052;6.982;2023-12-22T04:28:27;10.10;99.90
16243;DHT22;11719;51.052;6.982;2023-12-22T04:30:53;10.10;99.90
16243;DHT22;11719;51.052;6.982;2023-12-22T04:33:19;10.30;99.90
16243;DHT22;11719;51.052;6.982;2023-12-22T04:35:45;10.30;99.90
16243;DHT22;11719;51.052;6.982;2023-12-22T04:38:24;10.50;99.90
16243;DHT22;11719;51.052;6.982;2023-12-22T04:40:49;10.60;99.90
16243;DHT22;11719;51.052;6.982;2023-12-22T04:43:24;10.50;99.90
16243;DHT22;11719;51.052;6.982;2023-12-22T04:45:52;10.60;99.90
16243;DHT22;11719;51.052;6.982;2023-12-22T04:48:23;10.40;99.90
16243;DHT22;11719;51.052;6.982;2023-12-22T04:50:58;10.50;99.90
16243;DHT22;11719;51.052;6.982;2023-12-22T04:53:26;10.50;99.90
16243;DHT22;11719;51.052;6.982;2023-12-22T04:55:54;10.50;99.90
16243;DHT22;11719;51.052;6.982;2023-12-22T04:58:25;10.20;99.90
16243;DHT22;11719;51.052;6.982;2023-12-22T05:00:50;10.20;99.90
16243;DHT22;11719;51.052;6.982;2023-12-22T05:03:17;10.30;99.90
16243;DHT22;11719;51.052;6.982;2023-12-22T05:05:47;10.50;99.90
16243;DHT22;11719;51.052;6.982;2023-12-22T05:08:13;10.60;99.90
16243;DHT22;11719;51.052;6.982;2023-12-22T05:10:39;10.40;99.90
16243;DHT22;11719;51.052;6.982;2023-12-22T05:13:04;10.30;99.90
16243;DHT22;11719;51.052;6.982;2023-12-22T05:15:36;10.20;99.90
16243;DHT22;11719;51.052;6.982;2023-12-22T05:18:02;10.20;99.90
16243;DHT22;11719;51.052;6.982;2023-12-22T05:20:28;10.20;99.90
16243;DHT22;11719;51.052;6.982;2023-12-22T05:22:54;10.10;99.90
16243;DHT22;11719;51.052;6.982;2023-12-22T05:25:23;10.20;99.90
16243;DHT22;11719;51.052;6.982;2023-12-22T05:27:48;10.30;99.90
16243;DHT22;11719;51.052;6.982;2023-12-22T05:30:14;10.50;99.90
16243;DHT22;11719;51.052;6.982;2023-12-22T05:32:40;10.60;99.90
16243;DHT22;11719;51.052;6.982;2023-12-22T05:35:06;10.70;99.90
16243;DHT22;11719;51.052;6.982;2023-12-22T05:37:32;10.50;99.90
16243;DHT22;11719;51.052;6.982;2023-12-22T05:39:57;10.50;99.90
16243;DHT22;11719;51.052;6.982;2023-12-22T05:42:23;10.50;99.90
16243;DHT22;11719;51.052;6.982;2023-12-22T05:44:52;10.30;99.90
16243;DHT22;11719;51.052;6.982;2023-12-22T05:47:26;10.30;99.90
16243;DHT22;11719;51.052;6.982;2023-12-22T05:49:56;10.40;99.90
16243;DHT22;11719;51.052;6.982;2023-12-22T05:52:22;10.40;99.90
16243;DHT22;11719;51.052;6.982;2023-12-22T05:54:48;10.40;99.90
16243;DHT22;11719;51.052;6.982;2023-12-22T05:57:20;10.30;99.90
16243;DHT22;11719;51.052;6.982;2023-12-22T05:59:46;10.30;99.90
16243;DHT22;11719;51.052;6.982;2023-12-22T06:02:12;10.40;99.90
16243;DHT22;11719;51.052;6.982;2023-12-22T06:04:41;10.30;99.90
16243;DHT22;11719;51.052;6.982;2023-12-22T06:07:07;10.40;99.90
16243;DHT22;11719;51.052;6.982;2023-12-22T06:09:32;10.30;99.90
16243;DHT22;11719;51.052;6.982;2023-12-22T06:11:58;10.40;99.90
16243;DHT22;11719;51.052;6.982;2023-12-22T06:14:24;10.50;99.90
16243;DHT22;11719;51.052;6.982;2023-12-22T06:16:49;10.40;99.90
16243;DHT22;11719;51.052;6.982;2023-12-22T06:19:21;10.40;99.90
16243;DHT22;11719;51.052;6.982;2023-12-22T06:21:55;10.40;99.90
16243;DHT22;11719;51.052;6.982;2023-12-22T06:24:23;10.30;99.90
16243;DHT22;11719;51.052;6.982;2023-12-22T06:26:49;10.30;99.90
16243;DHT22;11719;51.052;6.982;2023-12-22T06:29:15;10.30;99.90
16243;DHT22;11719;51.052;6.982;2023-12-22T06:31:41;10.30;99.90
16243;DHT22;11719;51.052;6.982;2023-12-22T06:34:08;10.30;99.90
16243;DHT22;11719;51.052;6.982;2023-12-22T06:36:33;10.40;99.90
16243;DHT22;11719;51.052;6.982;2023-12-22T06:39:01;10.40;99.90
16243;DHT22;11719;51.052;6.982;2023-12-22T06:41:28;10.50;99.90
16243;DHT22;11719;51.052;6.982;2023-12-22T06:44:03;10.50;99.90
16243;DHT22;11719;51.052;6.982;2023-12-22T06:46:29;10.50;99.90
16243;DHT22;11719;51.052;6.982;2023-12-22T06:48:56;10.60;99.90
16243;DHT22;11719;51.052;6.982;2023-12-22T06:51:29;10.70;99.90
16243;DHT22;11719;51.052;6.982;2023-12-22T06:53:57;10.70;99.90
16243;DHT22;11719;51.052;6.982;2023-12-22T06:56:27;11.10;99.90
16243;DHT22;11719;51.052;6.982;2023-12-22T06:59:01;11.20;99.90
16243;DHT22;11719;51.052;6.982;2023-12-22T07:01:32;11.20;99.90
16243;DHT22;11719;51.052;6.982;2023-12-22T07:03:59;11.00;99.90
16243;DHT22;11719;51.052;6.982;2023-12-22T07:06:35;11.00;99.90
16243;DHT22;11719;51.052;6.982;2023-12-22T07:09:33;10.90;99.90
16243;DHT22;11719;51.052;6.982;2023-12-22T07:12:03;10.60;99.90
16243;DHT22;11719;51.052;6.982;2023-12-22T07:14:29;10.50;99.90
16243;DHT22;11719;51.052;6.982;2023-12-22T07:16:55;10.30;99.90
16243;DHT22;11719;51.052;6.982;2023-12-22T07:19:22;10.30;99.90
16243;DHT22;11719;51.052;6.982;2023-12-22T07:21:52;10.30;99.90
16243;DHT22;11719;51.052;6.982;2023-12-22T07:24:18;10.20;99.90
16243;DHT22;11719;51.052;6.982;2023-12-22T07:26:44;10.20;99.90
16243;DHT22;11719;51.052;6.982;2023-12-22T07:29:13;10.20;99.90
16243;DHT22;11719;51.052;6.982;2023-12-22T07:31:52;10.30;99.90
16243;DHT22;11719;51.052;6.982;2023-12-22T07:34:17;10.50;99.90
16243;DHT22;11719;51.052;6.982;2023-12-22T07:36:44;10.20;99.90
16243;DHT22;11719;51.052;6.982;2023-12-22T07:39:15;10.10;99.90
16243;DHT22;11719;51.052;6.982;2023-12-22T07:41:41;9.90;99.90
16243;DHT22;11719;51.052;6.982;2023-12-22T07:44:06;9.60;99.90
16243;DHT22;11719;51.052;6.982;2023-12-22T07:46:32;9.60;99.90
16243;DHT22;11719;51.052;6.982;2023-12-22T07:48:58;9.50;99.90
16243;DHT22;11719;51.052;6.982;2023-12-22T07:51:25;9.50;99.90
16243;DHT22;11719;51.052;6.982;2023-12-22T07:53:50;9.40;99.90
16243;DHT22;11719;51.052;6.982;2023-12-22T07:56:17;9.50;99.90
16243;DHT22;11719;51.052;6.982;2023-12-22T07:58:43;9.50;99.90
16243;DHT22;11719;51.052;6.982;2023-12-22T08:01:09;9.40;99.90
16243;DHT22;11719;51.052;6.982;2023-12-22T08:03:34;9.40;99.90
16243;DHT22;11719;51.052;6.982;2023-12-22T08:06:01;9.40;99.90
16243;DHT22;11719;51.052;6.982;2023-12-22T08:08:26;9.50;99.90
16243;DHT22;11719;51.052;6.982;2023-12-22T08:10:52;9.80;99.90
16243;DHT22;11719;51.052;6.982;2023-12-22T08:13:18;10.10;99.90
16243;DHT22;11719;51.052;6.982;2023-12-22T08:15:46;10.30;99.90
16243;DHT22;11719;51.052;6.982;2023-12-22T08:18:12;10.40;99.90
16243;DHT22;11719;51.052;6.982;2023-12-22T08:20:38;10.40;99.90
16243;DHT22;11719;51.052;6.982;2023-12-22T08:23:04;10.60;99.90
16243;DHT22;11719;51.052;6.982;2023-12-22T08:25:30;10.70;99.90
16243;DHT22;11719;51.052;6.982;2023-12-22T08:27:55;10.70;99.90
16243;DHT22;11719;51.052;6.982;2023-12-22T08:30:25;10.90;99.90
16243;DHT22;11719;51.052;6.982;2023-12-22T08:32:50;10.80;99.90
16243;DHT22;11719;51.052;6.982;2023-12-22T08:35:16;11.00;99.90
16243;DHT22;11719;51.052;6.982;2023-12-22T08:37:42;11.00;99.90
16243;DHT22;11719;51.052;6.982;2023-12-22T08:40:11;10.80;99.90
16243;DHT22;11719;51.052;6.982;2023-12-22T08:42:36;10.90;99.90
16243;DHT22;11719;51.052;6.982;2023-12-22T08:45:02;10.80;99.90
16243;DHT22;11719;51.052;6.982;2023-12-22T08:47:30;10.90;99.90
16243;DHT22;11719;51.052;6.982;2023-12-22T08:49:56;11.10;99.90
16243;DHT22;11719;51.052;6.982;2023-12-22T08:52:22;11.20;99.90
16243;DHT22;11719;51.052;6.982;2023-12-22T08:54:48;11.20;99.90
16243;DHT22;11719;51.052;6.982;2023-12-22T08:57:14;11.40;99.90
16243;DHT22;11719;51.052;6.982;2023-12-22T08:59:39;11.30;99.90
16243;DHT22;11719;51.052;6.982;2023-12-22T09:02:08;11.40;99.90
16243;DHT22;11719;51.052;6.982;2023-12-22T09:04:36;11.60;99.90
16243;DHT22;11719;51.052;6.982;2023-12-22T09:07:07;11.60;99.90
16243;DHT22;11719;51.052;6.982;2023-12-22T09:09:32;11.70;99.90
16243;DHT22;11719;51.052;6.982;2023-12-22T09:11:58;11.70;99.90
16243;DHT22;11719;51.052;6.982;2023-12-22T09:14:34;11.80;99.90
16243;DHT22;11719;51.052;6.982;2023-12-22T09:17:00;11.90;99.90
16243;DHT22;11719;51.052;6.982;2023-12-22T09:19:26;11.90;99.90
16243;DHT22;11719;51.052;6.982;2023-12-22T09:21:52;12.00;99.90
16243;DHT22;11719;51.052;6.982;2023-12-22T09:24:18;11.90;99.90
16243;DHT22;11719;51.052;6.982;2023-12-22T09:26:46;12.10;99.90
16243;DHT22;11719;51.052;6.982;2023-12-22T09:29:15;12.20;99.90
16243;DHT22;11719;51.052;6.982;2023-12-22T09:31:42;12.40;99.90
16243;DHT22;11719;51.052;6.982;2023-12-22T09:34:16;12.40;99.90
16243;DHT22;11719;51.052;6.982;2023-12-22T09:36:45;12.40;99.90
16243;DHT22;11719;51.052;6.982;2023-12-22T09:39:13;12.60;99.90
16243;DHT22;11719;51.052;6.982;2023-12-22T09:41:49;12.30;99.90
16243;DHT22;11719;51.052;6.982;2023-12-22T09:44:21;12.20;99.90
16243;DHT22;11719;51.052;6.982;2023-12-22T09:46:55;12.40;99.90
16243;DHT22;11719;51.052;6.982;2023-12-22T09:49:22;12.40;99.90
16243;DHT22;11719;51.052;6.982;2023-12-22T09:51:49;12.50;99.90
16243;DHT22;11719;51.052;6.982;2023-12-22T09:54:16;12.50;99.90
16243;DHT22;11719;51.052;6.982;2023-12-22T09:56:46;12.40;99.90
16243;DHT22;11719;51.052;6.982;2023-12-22T09:59:13;12.40;99.90
16243;DHT22;11719;51.052;6.982;2023-12-22T10:01:43;12.20;99.90
16243;DHT22;11719;51.052;6.982;2023-12-22T10:10:01;12.00;99.90
16243;DHT22;11719;51.052;6.982;2023-12-22T10:14:01;12.00;99.90
16243;DHT22;11719;51.052;6.982;2023-12-22T10:28:33;11.90;99.90
16243;DHT22;11719;51.052;6.982;2023-12-22T10:34:58;12.10;99.90
16243;DHT22;11719;51.052;6.982;2023-12-22T10:38:39;12.00;99.90
16243;DHT22;11719;51.052;6.982;2023-12-22T10:49:26;12.00;99.90
16243;DHT22;11719;51.052;6.982;2023-12-22T10:52:05;12.10;99.90
16243;DHT22;11719;51.052;6.982;2023-12-22T10:54:39;11.90;99.90
16243;DHT22;11719;51.052;6.982;2023-12-22T10:57:22;12.00;99.90
16243;DHT22;11719;51.052;6.982;2023-12-22T10:59:48;12.10;99.90
16243;DHT22;11719;51.052;6.982;2023-12-22T11:02:22;12.10;99.90
16243;DHT22;11719;51.052;6.982;2023-12-22T11:05:05;12.20;99.90
16243;DHT22;11719;51.052;6.982;2023-12-22T11:07:34;11.90;99.90
16243;DHT22;11719;51.052;6.982;2023-12-22T11:10:15;12.00;99.90
16243;DHT22;11719;51.052;6.982;2023-12-22T11:13:05;11.80;99.90
16243;DHT22;11719;51.052;6.982;2023-12-22T11:15:49;11.90;99.90
16243;DHT22;11719;51.052;6.982;2023-12-22T11:18:35;11.80;99.90
16243;DHT22;11719;51.052;6.982;2023-12-22T11:21:24;11.80;99.90
16243;DHT22;11719;51.052;6.982;2023-12-22T11:23:58;11.70;99.90
16243;DHT22;11719;51.052;6.982;2023-12-22T11:29:47;11.70;99.90
16243;DHT22;11719;51.052;6.982;2023-12-22T11:32:37;11.60;99.90
16243;DHT22;11719;51.052;6.982;2023-12-22T11:35:30;11.70;99.90
16243;DHT22;11719;51.052;6.982;2023-12-22T11:38:29;11.70;99.90
16243;DHT22;11719;51.052;6.982;2023-12-22T11:41:25;11.80;99.90
16243;DHT22;11719;51.052;6.982;2023-12-22T11:44:14;11.80;99.90
16243;DHT22;11719;51.052;6.982;2023-12-22T11:47:08;11.70;99.90
16243;DHT22;11719;51.052;6.982;2023-12-22T12:05:34;11.50;99.90
16243;DHT22;11719;51.052;6.982;2023-12-22T12:08:13;12.50;99.90
16243;DHT22;11719;51.052;6.982;2023-12-22T12:13:22;12.30;99.90
16243;DHT22;11719;51.052;6.982;2023-12-22T12:15:52;12.00;99.90
16243;DHT22;11719;51.052;6.982;2023-12-22T12:18:27;12.00;99.90
16243;DHT22;11719;51.052;6.982;2023-12-22T12:20:54;12.00;99.90
16243;DHT22;11719;51.052;6.982;2023-12-22T12:23:24;12.10;99.90
16243;DHT22;11719;51.052;6.982;2023-12-22T12:25:56;12.00;99.90
16243;DHT22;11719;51.052;6.982;2023-12-22T12:28:30;12.00;99.90
16243;DHT22;11719;51.052;6.982;2023-12-22T12:31:02;12.00;99.90
16243;DHT22;11719;51.052;6.982;2023-12-22T12:33:30;11.90;99.90
16243;DHT22;11719;51.052;6.982;2023-12-22T12:35:57;11.90;99.90
16243;DHT22;11719;51.052;6.982;2023-12-22T12:38:45;11.80;99.90
16243;DHT22;11719;51.052;6.982;2023-12-22T12:42:00;11.80;99.90
16243;DHT22;11719;51.052;6.982;2023-12-22T12:44:35;11.90;99.90
16243;DHT22;11719;51.052;6.982;2023-12-22T12:47:27;11.90;99.90
16243;DHT22;11719;51.052;6.982;2023-12-22T12:50:11;12.00;99.90
16243;DHT22;11719;51.052;6.982;2023-12-22T12:52:37;11.90;99.90
16243;DHT22;11719;51.052;6.982;2023-12-22T12:55:08;12.00;99.90
16243;DHT22;11719;51.052;6.982;2023-12-22T12:57:34;12.20;99.90
16243;DHT22;11719;51.052;6.982;2023-12-22T13:00:00;12.20;99.90
16243;DHT22;11719;51.052;6.982;2023-12-22T13:02:26;12.20;99.90
16243;DHT22;11719;51.052;6.982;2023-12-22T13:04:54;12.20;99.90
16243;DHT22;11719;51.052;6.982;2023-12-22T13:07:28;12.20;99.90
16243;DHT22;11719;51.052;6.982;2023-12-22T13:10:24;12.10;99.90
16243;DHT22;11719;51.052;6.982;2023-12-22T13:12:58;12.00;99.90
16243;DHT22;11719;51.052;6.982;2023-12-22T13:15:24;12.00;99.90
16243;DHT22;11719;51.052;6.982;2023-12-22T13:17:53;12.10;99.90
16243;DHT22;11719;51.052;6.982;2023-12-22T13:20:23;12.10;99.90
16243;DHT22;11719;51.052;6.982;2023-12-22T13:22:51;12.20;99.90
16243;DHT22;11719;51.052;6.982;2023-12-22T13:25:27;12.30;99.90
16243;DHT22;11719;51.052;6.982;2023-12-22T13:27:52;12.30;99.90
16243;DHT22;11719;51.052;6.982;2023-12-22T13:30:43;12.10;99.90
16243;DHT22;11719;51.052;6.982;2023-12-22T13:33:15;12.00;99.90
16243;DHT22;11719;51.052;6.982;2023-12-22T13:36:12;12.00;99.90
16243;DHT22;11719;51.052;6.982;2023-12-22T13:38:38;11.80;99.90
16243;DHT22;11719;51.052;6.982;2023-12-22T13:41:39;11.80;99.90
16243;DHT22;11719;51.052;6.982;2023-12-22T13:45:00;11.80;99.90
16243;DHT22;11719;51.052;6.982;2023-12-22T13:47:59;11.90;99.90
16243;DHT22;11719;51.052;6.982;2023-12-22T13:51:06;11.90;99.90
16243;DHT22;11719;51.052;6.982;2023-12-22T13:53:53;12.00;99.90
16243;DHT22;11719;51.052;6.982;2023-12-22T13:59:33;11.90;99.90
16243;DHT22;11719;51.052;6.982;2023-12-22T14:02:00;11.90;99.90
16243;DHT22;11719;51.052;6.982;2023-12-22T14:04:26;12.00;99.90
16243;DHT22;11719;51.052;6.982;2023-12-22T14:06:53;12.00;99.90
16243;DHT22;11719;51.052;6.982;2023-12-22T14:09:19;12.00;99.90
16243;DHT22;11719;51.052;6.982;2023-12-22T14:11:49;12.10;99.90
16243;DHT22;11719;51.052;6.982;2023-12-22T14:14:15;12.00;99.90
16243;DHT22;11719;51.052;6.982;2023-12-22T14:16:42;12.00;99.90
16243;DHT22;11719;51.052;6.982;2023-12-22T14:19:08;12.00;99.90
16243;DHT22;11719;51.052;6.982;2023-12-22T14:21:34;12.00;99.90
16243;DHT22;11719;51.052;6.982;2023-12-22T14:23:59;11.90;99.90
16243;DHT22;11719;51.052;6.982;2023-12-22T14:26:25;11.90;99.90
16243;DHT22;11719;51.052;6.982;2023-12-22T14:28:51;11.80;99.90
16243;DHT22;11719;51.052;6.982;2023-12-22T14:31:23;11.90;99.90
16243;DHT22;11719;51.052;6.982;2023-12-22T14:33:51;11.90;99.90
16243;DHT22;11719;51.052;6.982;2023-12-22T14:36:17;11.80;99.90
16243;DHT22;11719;51.052;6.982;2023-12-22T14:38:43;11.80;99.90
16243;DHT22;11719;51.052;6.982;2023-12-22T14:41:09;11.90;99.90
16243;DHT22;11719;51.052;6.982;2023-12-22T14:43:34;11.80;99.90
16243;DHT22;11719;51.052;6.982;2023-12-22T14:46:00;11.60;99.90
16243;DHT22;11719;51.052;6.982;2023-12-22T14:48:26;11.60;99.90
16243;DHT22;11719;51.052;6.982;2023-12-22T14:50:52;11.60;99.90
16243;DHT22;11719;51.052;6.982;2023-12-22T14:53:18;11.60;99.90
16243;DHT22;11719;51.052;6.982;2023-12-22T14:55:43;11.80;99.90
16243;DHT22;11719;51.052;6.982;2023-12-22T14:58:09;11.80;99.90
16243;DHT22;11719;51.052;6.982;2023-12-22T15:00:36;11.80;99.90
16243;DHT22;11719;51.052;6.982;2023-12-22T15:03:05;11.70;99.90
16243;DHT22;11719;51.052;6.982;2023-12-22T15:05:30;11.70;99.90
16243;DHT22;11719;51.052;6.982;2023-12-22T15:07:56;11.60;99.90
16243;DHT22;11719;51.052;6.982;2023-12-22T15:10:22;11.60;99.90
16243;DHT22;11719;51.052;6.982;2023-12-22T15:12:48;11.60;99.90
16243;DHT22;11719;51.052;6.982;2023-12-22T15:15:14;11.60;99.90
16243;DHT22;11719;51.052;6.982;2023-12-22T15:17:39;11.50;99.90
16243;DHT22;11719;51.052;6.982;2023-12-22T15:20:06;11.60;99.90
16243;DHT22;11719;51.052;6.982;2023-12-22T15:22:34;11.60;99.90
16243;DHT22;11719;51.052;6.982;2023-12-22T15:24:59;11.60;99.90
16243;DHT22;11719;51.052;6.982;2023-12-22T15:27:25;11.60;99.90
16243;DHT22;11719;51.052;6.982;2023-12-22T15:29:53;11.60;99.90
16243;DHT22;11719;51.052;6.982;2023-12-22T15:32:19;11.60;99.90
16243;DHT22;11719;51.052;6.982;2023-12-22T15:34:45;11.60;99.90
16243;DHT22;11719;51.052;6.982;2023-12-22T15:37:12;11.60;99.90
16243;DHT22;11719;51.052;6.982;2023-12-22T15:39:39;11.50;99.90
16243;DHT22;11719;51.052;6.982;2023-12-22T15:42:04;11.40;99.90
16243;DHT22;11719;51.052;6.982;2023-12-22T15:44:30;11.40;99.90
16243;DHT22;11719;51.052;6.982;2023-12-22T15:46:56;11.40;99.90
16243;DHT22;11719;51.052;6.982;2023-12-22T15:49:22;11.40;99.90
16243;DHT22;11719;51.052;6.982;2023-12-22T15:51:47;11.40;99.90
16243;DHT22;11719;51.052;6.982;2023-12-22T15:54:13;11.40;99.90
16243;DHT22;11719;51.052;6.982;2023-12-22T15:56:41;11.50;99.90
16243;DHT22;11719;51.052;6.982;2023-12-22T15:59:07;11.50;99.90
16243;DHT22;11719;51.052;6.982;2023-12-22T16:01:33;11.50;99.90
16243;DHT22;11719;51.052;6.982;2023-12-22T16:03:58;11.60;99.90
16243;DHT22;11719;51.052;6.982;2023-12-22T16:06:24;11.60;99.90
16243;DHT22;11719;51.052;6.982;2023-12-22T16:08:50;11.60;99.90
16243;DHT22;11719;51.052;6.982;2023-12-22T16:11:19;11.70;99.90
16243;DHT22;11719;51.052;6.982;2023-12-22T16:13:46;11.80;99.90
16243;DHT22;11719;51.052;6.982;2023-12-22T16:16:17;11.80;99.90
16243;DHT22;11719;51.052;6.982;2023-12-22T16:18:43;11.80;99.90
16243;DHT22;11719;51.052;6.982;2023-12-22T16:21:09;11.90;99.90
16243;DHT22;11719;51.052;6.982;2023-12-22T16:23:38;11.90;99.90
16243;DHT22;11719;51.052;6.982;2023-12-22T16:26:04;11.80;99.90
16243;DHT22;11719;51.052;6.982;2023-12-22T16:28:32;11.80;99.90
16243;DHT22;11719;51.052;6.982;2023-12-22T16:31:00;11.70;99.90
16243;DHT22;11719;51.052;6.982;2023-12-22T16:33:26;11.80;99.90
16243;DHT22;11719;51.052;6.982;2023-12-22T16:35:52;12.00;99.90
16243;DHT22;11719;51.052;6.982;2023-12-22T16:38:26;12.30;99.90
16243;DHT22;11719;51.052;6.982;2023-12-22T16:40:52;12.30;99.90
16243;DHT22;11719;51.052;6.982;2023-12-22T16:43:18;12.00;99.90
16243;DHT22;11719;51.052;6.982;2023-12-22T16:45:43;11.90;99.90
16243;DHT22;11719;51.052;6.982;2023-12-22T16:48:09;11.80;99.90
16243;DHT22;11719;51.052;6.982;2023-12-22T16:50:35;11.80;99.90
16243;DHT22;11719;51.052;6.982;2023-12-22T16:53:00;11.80;99.90
16243;DHT22;11719;51.052;6.982;2023-12-22T16:55:26;11.90;99.90
16243;DHT22;11719;51.052;6.982;2023-12-22T16:57:52;11.90;99.90